Time;durP1;ratioP1;P1;durP2;ratioP2;P2;SDS_P1;SDS_P2;PMS_P1;PMS_P2;Temp;Humidity;BMP_temperature;BMP_pressure;BME280_temperature;BME280_humidity;BME280_pressure;Samples;Min_cycle;Max_cycle;Signal;HPM_P1;HPM_P2
2022/06/06 00:01:46;;;;;;;16.03;14.43;;;19.00;99.90;;;;;;4915040;29;20419;-76
2022/06/06 00:04:13;;;;;;;17.33;15.63;;;19.00;99.90;;;;;;4913286;29;20481;-68
2022/06/06 00:06:39;;;;;;;18.40;15.87;;;19.00;99.90;;;;;;4915686;29;20430;-68
2022/06/06 00:09:06;;;;;;;22.90;18.10;;;19.00;99.90;;;;;;4914336;29;20489;-68
2022/06/06 00:11:33;;;;;;;21.37;17.93;;;19.00;99.90;;;;;;4901580;29;20418;-69
2022/06/06 00:13:59;;;;;;;22.80;19.00;;;18.90;99.90;;;;;;4921140;29;20484;-68
2022/06/06 00:16:25;;;;;;;23.17;19.70;;;18.80;99.90;;;;;;4935307;29;20504;-68
2022/06/06 00:18:51;;;;;;;22.53;19.93;;;18.80;99.90;;;;;;4915221;29;20477;-69
2022/06/06 00:21:16;;;;;;;22.43;19.83;;;18.80;99.90;;;;;;4916649;29;20182;-68
2022/06/06 00:23:42;;;;;;;23.37;19.30;;;18.70;99.90;;;;;;4915970;29;20211;-76
2022/06/06 00:26:11;;;;;;;24.30;19.77;;;18.70;99.90;;;;;;4899021;29;20273;-68
2022/06/06 00:28:39;;;;;;;23.40;18.03;;;18.60;99.90;;;;;;4915333;29;20186;-68
2022/06/06 00:36:40;;;;;;;24.97;19.80;;;18.60;99.90;;;;;;4916586;29;20422;-68
2022/06/06 00:39:08;;;;;;;25.70;20.10;;;18.60;99.90;;;;;;4915306;29;20519;-67
2022/06/06 00:41:38;;;;;;;22.93;18.53;;;18.50;99.90;;;;;;4915515;29;20517;-67
2022/06/06 00:44:08;;;;;;;22.17;19.20;;;18.50;99.90;;;;;;4915306;29;20624;-67
2022/06/06 00:46:39;;;;;;;21.67;18.80;;;18.40;99.90;;;;;;4916358;29;20427;-67
2022/06/06 00:49:07;;;;;;;23.60;19.07;;;18.50;99.90;;;;;;4915824;29;20513;-67
2022/06/06 00:51:34;;;;;;;20.07;17.60;;;18.50;99.90;;;;;;4899466;29;20446;-67
2022/06/06 00:54:00;;;;;;;23.70;19.07;;;18.50;99.90;;;;;;4851113;29;20521;-67
2022/06/06 00:56:30;;;;;;;20.07;17.40;;;18.40;99.90;;;;;;4916217;29;20822;-67
2022/06/06 00:59:01;;;;;;;20.53;18.10;;;18.40;99.90;;;;;;4914614;29;20182;-68
2022/06/06 01:01:28;;;;;;;22.37;18.07;;;18.40;99.90;;;;;;4916353;29;20414;-67
2022/06/06 01:04:00;;;;;;;20.50;17.87;;;18.40;99.90;;;;;;4914490;29;20481;-68
2022/06/06 01:06:29;;;;;;;19.37;17.17;;;18.50;99.90;;;;;;4898477;29;20478;-67
2022/06/06 01:08:56;;;;;;;21.23;17.10;;;18.50;99.90;;;;;;4915091;29;20517;-67
2022/06/06 01:11:22;;;;;;;22.10;18.03;;;18.40;99.90;;;;;;4916173;29;20419;-67
2022/06/06 01:13:48;;;;;;;21.03;18.27;;;18.40;99.90;;;;;;4915535;29;20438;-75
2022/06/06 01:16:31;;;;;;;22.83;19.07;;;18.50;99.90;;;;;;4915839;29;20654;-67
2022/06/06 01:18:57;;;;;;;24.47;18.70;;;18.50;99.90;;;;;;4914862;29;20469;-67
2022/06/06 01:21:31;;;;;;;23.23;19.07;;;18.60;99.90;;;;;;4915700;29;20440;-67
2022/06/06 01:24:27;;;;;;;20.03;17.57;;;18.60;99.90;;;;;;4914977;29;20280;-67
2022/06/06 01:27:17;;;;;;;22.20;18.97;;;18.60;99.90;;;;;;4897520;29;20450;-67
2022/06/06 01:29:49;;;;;;;23.40;19.20;;;18.70;99.90;;;;;;4914649;29;20957;-68
2022/06/06 01:32:20;;;;;;;26.40;19.40;;;18.60;99.90;;;;;;4915983;29;20410;-67
2022/06/06 01:34:51;;;;;;;23.90;19.20;;;18.70;99.90;;;;;;4914811;29;20438;-76
2022/06/06 01:37:24;;;;;;;22.70;18.57;;;18.70;99.90;;;;;;4894981;29;20435;-67
2022/06/06 01:39:50;;;;;;;24.23;18.50;;;18.70;99.90;;;;;;4915305;29;20772;-69
2022/06/06 01:42:24;;;;;;;23.57;20.73;;;18.70;99.90;;;;;;4919609;29;20403;-67
2022/06/06 01:45:21;;;;;;;25.23;19.33;;;18.70;99.90;;;;;;4918777;29;20203;-75
2022/06/06 01:47:52;;;;;;;23.07;19.20;;;18.70;99.90;;;;;;4898206;29;20919;-74
2022/06/06 01:50:20;;;;;;;21.17;17.87;;;18.70;99.90;;;;;;4919336;29;20417;-67
2022/06/06 01:53:03;;;;;;;19.20;17.07;;;18.60;99.90;;;;;;4917857;29;20477;-68
2022/06/06 01:55:31;;;;;;;18.07;16.30;;;18.60;99.90;;;;;;4919265;29;20434;-68
2022/06/06 01:58:01;;;;;;;20.20;17.00;;;18.60;99.90;;;;;;4918656;29;20434;-68
2022/06/06 02:00:29;;;;;;;20.60;17.10;;;18.60;99.90;;;;;;4919483;29;20755;-67
2022/06/06 02:02:55;;;;;;;19.33;16.40;;;18.50;99.90;;;;;;4917418;29;20442;-67
2022/06/06 02:05:20;;;;;;;19.00;16.40;;;18.60;99.90;;;;;;4918895;29;20791;-68
2022/06/06 02:07:46;;;;;;;18.63;15.60;;;18.60;99.90;;;;;;4919200;29;20182;-67
2022/06/06 02:10:14;;;;;;;17.63;14.93;;;18.60;99.90;;;;;;4918511;29;20194;-67
2022/06/06 02:12:41;;;;;;;22.10;15.97;;;18.60;99.90;;;;;;4919085;29;20506;-67
2022/06/06 02:15:08;;;;;;;18.83;15.77;;;18.60;99.90;;;;;;4918546;29;20422;-67
2022/06/06 02:17:34;;;;;;;15.93;14.23;;;18.60;99.90;;;;;;4918991;29;20410;-67
2022/06/06 02:20:04;;;;;;;16.70;14.90;;;18.60;99.90;;;;;;4917076;29;20879;-67
2022/06/06 02:22:31;;;;;;;17.00;14.50;;;18.60;99.90;;;;;;4918722;29;20194;-67
2022/06/06 02:24:57;;;;;;;18.17;15.97;;;18.60;99.90;;;;;;4918080;29;20462;-68
2022/06/06 02:27:23;;;;;;;16.10;14.40;;;18.70;99.90;;;;;;4918541;29;20813;-67
2022/06/06 02:29:48;;;;;;;17.53;14.27;;;18.70;99.90;;;;;;4918707;29;20430;-76
2022/06/06 02:32:14;;;;;;;15.53;13.83;;;18.60;99.90;;;;;;4901223;29;20183;-67
2022/06/06 02:34:40;;;;;;;16.00;13.67;;;18.70;99.90;;;;;;4918889;29;20185;-67
2022/06/06 02:37:05;;;;;;;16.40;14.37;;;18.60;99.90;;;;;;4916294;29;20199;-67
2022/06/06 02:39:31;;;;;;;19.10;15.67;;;18.60;99.90;;;;;;4918635;29;20179;-67
2022/06/06 02:41:57;;;;;;;18.57;15.07;;;18.60;99.90;;;;;;4917062;29;20619;-68
2022/06/06 02:44:23;;;;;;;16.67;14.90;;;18.60;99.90;;;;;;4918473;29;20517;-67
2022/06/06 02:46:50;;;;;;;17.50;14.70;;;18.60;99.90;;;;;;4917328;29;20550;-75
2022/06/06 02:49:16;;;;;;;17.60;15.53;;;18.60;99.90;;;;;;4917858;29;20477;-67
2022/06/06 02:51:42;;;;;;;19.93;16.93;;;18.60;99.90;;;;;;4918016;29;20525;-68
2022/06/06 02:54:08;;;;;;;18.37;16.10;;;18.60;99.90;;;;;;4900609;29;20195;-67
2022/06/06 02:56:34;;;;;;;17.63;15.70;;;18.60;99.90;;;;;;4918352;29;20427;-67
2022/06/06 02:59:04;;;;;;;17.00;14.60;;;18.60;99.90;;;;;;4916539;29;20187;-67
2022/06/06 03:01:30;;;;;;;17.40;15.57;;;18.60;99.90;;;;;;4900962;29;20434;-68
2022/06/06 03:03:56;;;;;;;20.00;15.40;;;18.70;99.90;;;;;;4917555;29;20465;-68
2022/06/06 03:06:27;;;;;;;18.90;16.70;;;18.70;99.90;;;;;;4918127;29;20432;-67
2022/06/06 03:09:34;;;;;;;21.57;15.37;;;18.70;99.90;;;;;;4917734;29;20208;-76
2022/06/06 03:12:27;;;;;;;17.83;15.70;;;18.70;99.90;;;;;;4857700;29;20585;-68
2022/06/06 03:14:59;;;;;;;18.23;16.17;;;18.70;99.90;;;;;;4859383;29;20550;-75
2022/06/06 03:20:51;;;;;;;20.13;15.80;;;18.70;99.90;;;;;;4878015;29;20440;-67
2022/06/06 03:23:25;;;;;;;19.83;15.80;;;18.70;99.90;;;;;;4861788;29;20472;-67
2022/06/06 03:26:15;;;;;;;17.47;15.20;;;18.70;99.90;;;;;;4877984;29;20453;-67
2022/06/06 03:29:05;;;;;;;17.50;14.90;;;18.70;99.90;;;;;;4877127;29;21050;-67
2022/06/06 03:31:34;;;;;;;17.80;15.30;;;18.60;99.90;;;;;;4876662;29;20927;-67
2022/06/06 03:34:15;;;;;;;17.80;15.10;;;18.60;99.90;;;;;;4875723;29;20508;-68
2022/06/06 03:37:04;;;;;;;20.60;15.90;;;18.60;99.90;;;;;;4862450;29;20456;-67
2022/06/06 03:39:40;;;;;;;18.50;15.80;;;18.60;99.90;;;;;;4841611;29;20452;-68
2022/06/06 03:42:30;;;;;;;19.17;16.20;;;18.60;99.90;;;;;;4885840;29;20427;-68
2022/06/06 03:45:02;;;;;;;20.80;16.47;;;18.60;99.90;;;;;;4916956;29;20458;-76
2022/06/06 03:47:49;;;;;;;22.07;17.60;;;18.60;99.90;;;;;;4923134;29;20572;-67
2022/06/06 03:50:29;;;;;;;20.70;17.20;;;18.60;99.90;;;;;;4933296;29;20465;-68
2022/06/06 03:53:08;;;;;;;16.17;14.47;;;18.60;99.90;;;;;;4918959;29;20432;-76
2022/06/06 03:56:04;;;;;;;20.03;16.30;;;18.60;99.90;;;;;;4935664;29;20437;-67
2022/06/06 03:58:32;;;;;;;18.83;16.80;;;18.70;99.90;;;;;;4936007;29;20394;-67
2022/06/06 04:01:05;;;;;;;16.60;15.00;;;18.70;99.90;;;;;;4935353;29;20488;-70
2022/06/06 04:03:33;;;;;;;16.30;14.60;;;18.70;99.90;;;;;;4934393;29;20461;-67
2022/06/06 04:06:01;;;;;;;16.60;14.63;;;18.70;99.90;;;;;;4918205;29;20784;-71
2022/06/06 04:08:28;;;;;;;15.50;13.90;;;18.70;99.90;;;;;;4935747;29;20422;-67
2022/06/06 04:11:24;;;;;;;16.80;14.80;;;18.70;99.90;;;;;;4936012;29;20421;-68
2022/06/06 04:13:53;;;;;;;14.27;12.87;;;18.70;99.90;;;;;;4886656;29;20870;-67
2022/06/06 04:16:39;;;;;;;15.73;13.40;;;18.60;99.90;;;;;;4902450;29;20434;-67
2022/06/06 04:19:19;;;;;;;14.87;13.03;;;18.60;99.90;;;;;;4926567;29;20580;-68
2022/06/06 04:21:48;;;;;;;13.53;12.20;;;18.60;99.90;;;;;;4913610;29;20433;-68
2022/06/06 04:24:23;;;;;;;13.30;12.00;;;18.60;99.90;;;;;;4896994;29;20987;-68
2022/06/06 04:27:03;;;;;;;12.47;11.10;;;18.60;99.90;;;;;;4916792;29;20406;-67
2022/06/06 04:29:44;;;;;;;13.80;11.20;;;18.50;99.90;;;;;;4916781;29;20419;-67
2022/06/06 04:32:32;;;;;;;13.03;11.33;;;18.50;99.90;;;;;;4914832;29;20434;-67
2022/06/06 04:35:24;;;;;;;15.37;11.57;;;18.50;99.90;;;;;;4888996;29;20446;-76
2022/06/06 04:38:06;;;;;;;12.73;11.40;;;18.60;99.90;;;;;;4918547;29;20438;-67
2022/06/06 04:40:40;;;;;;;12.30;11.10;;;18.60;99.90;;;;;;4921030;29;20465;-67
2022/06/06 04:43:20;;;;;;;11.67;10.53;;;18.60;99.90;;;;;;4934680;29;20439;-67
2022/06/06 04:45:58;;;;;;;11.10;10.10;;;18.50;99.90;;;;;;4935569;29;20409;-67
2022/06/06 04:48:25;;;;;;;9.40;8.63;;;18.50;99.90;;;;;;4920662;29;20485;-67
2022/06/06 04:50:51;;;;;;;9.73;8.83;;;18.60;99.90;;;;;;4916422;29;20430;-67
2022/06/06 04:53:20;;;;;;;9.60;8.70;;;18.60;99.90;;;;;;4914978;29;20434;-67
2022/06/06 04:55:49;;;;;;;9.37;8.67;;;18.60;99.90;;;;;;4916335;29;20978;-67
2022/06/06 04:58:17;;;;;;;10.23;9.27;;;18.60;99.90;;;;;;4915664;29;20522;-68
2022/06/06 05:00:43;;;;;;;10.80;9.80;;;18.60;99.90;;;;;;4916440;29;20450;-67
2022/06/06 05:03:09;;;;;;;9.53;8.73;;;18.60;99.90;;;;;;4914781;29;20430;-68
2022/06/06 05:06:02;;;;;;;9.97;9.07;;;18.60;99.90;;;;;;4916497;29;20430;-68
2022/06/06 05:08:49;;;;;;;10.63;8.87;;;18.60;99.90;;;;;;4907685;29;20458;-67
2022/06/06 05:11:59;;;;;;;9.30;8.50;;;18.60;99.90;;;;;;4915571;29;20854;-67
2022/06/06 05:14:35;;;;;;;9.43;8.70;;;18.60;99.90;;;;;;4838775;29;20438;-67
2022/06/06 05:17:36;;;;;;;8.67;7.87;;;18.50;99.90;;;;;;4909463;29;20434;-75
2022/06/06 05:20:33;;;;;;;8.63;7.83;;;18.50;99.90;;;;;;4914854;29;20477;-75
2022/06/06 05:23:08;;;;;;;8.80;7.97;;;18.70;99.90;;;;;;4914953;29;20462;-75
2022/06/06 05:25:40;;;;;;;9.20;8.40;;;18.70;99.90;;;;;;4916321;29;20437;-68
2022/06/06 05:28:17;;;;;;;9.70;8.77;;;18.90;99.90;;;;;;4915312;29;20441;-68
2022/06/06 05:31:03;;;;;;;8.57;7.87;;;18.90;99.90;;;;;;4913711;29;20508;-68
2022/06/06 05:33:42;;;;;;;8.17;7.47;;;19.00;99.90;;;;;;4915920;29;20502;-68
2022/06/06 05:36:35;;;;;;;8.57;7.87;;;19.00;99.90;;;;;;4914302;29;20434;-68
2022/06/06 05:39:52;;;;;;;8.57;7.77;;;19.10;99.90;;;;;;4906091;29;20449;-75
2022/06/06 05:42:36;;;;;;;8.57;7.80;;;19.20;99.90;;;;;;4905577;29;20469;-68
2022/06/06 05:45:05;;;;;;;8.07;7.37;;;19.20;99.90;;;;;;4896394;29;20517;-75
2022/06/06 05:48:13;;;;;;;8.70;7.90;;;19.10;99.90;;;;;;4931382;29;20437;-68
2022/06/06 05:50:58;;;;;;;8.83;8.03;;;19.20;99.90;;;;;;4838987;29;20951;-68
2022/06/06 05:53:55;;;;;;;8.30;7.60;;;19.20;99.90;;;;;;4919614;29;20461;-70
2022/06/06 05:56:51;;;;;;;7.97;7.27;;;19.30;99.90;;;;;;4888405;29;20548;-68
2022/06/06 05:59:30;;;;;;;8.13;7.43;;;19.30;99.90;;;;;;4895466;29;20509;-68
2022/06/06 06:02:25;;;;;;;7.57;6.97;;;19.30;99.90;;;;;;4922499;29;20433;-68
2022/06/06 06:05:08;;;;;;;222.67;169.17;;;19.30;99.90;;;;;;4863035;29;20506;-67
2022/06/06 06:07:59;;;;;;;67.73;54.10;;;19.30;99.90;;;;;;4914531;29;20411;-68
2022/06/06 06:10:52;;;;;;;147.93;126.97;;;19.30;99.90;;;;;;4912478;29;20442;-67
2022/06/06 06:13:28;;;;;;;102.03;72.53;;;19.30;99.90;;;;;;4915116;29;20435;-68
2022/06/06 06:15:59;;;;;;;35.87;32.10;;;19.30;99.90;;;;;;4918034;29;20406;-67
2022/06/06 06:18:33;;;;;;;12.73;11.53;;;19.30;99.90;;;;;;4912990;29;21294;-68
2022/06/06 06:21:12;;;;;;;8.53;7.77;;;19.30;99.90;;;;;;4913198;29;20438;-67
2022/06/06 06:23:43;;;;;;;8.60;7.90;;;19.30;99.90;;;;;;4913382;29;21017;-72
2022/06/06 06:26:11;;;;;;;7.00;6.40;;;19.20;99.90;;;;;;4909908;29;20438;-68
2022/06/06 06:28:37;;;;;;;7.40;6.80;;;19.20;99.90;;;;;;4895723;29;20877;-68
2022/06/06 06:31:35;;;;;;;9.03;8.13;;;19.10;99.90;;;;;;4914589;29;20498;-76
2022/06/06 06:34:18;;;;;;;7.70;7.00;;;19.10;99.90;;;;;;4902089;29;20438;-68
2022/06/06 06:36:51;;;;;;;7.50;6.70;;;19.10;99.90;;;;;;4917919;29;20956;-68
2022/06/06 06:39:41;;;;;;;7.50;6.90;;;19.00;99.90;;;;;;4920333;29;20539;-68
2022/06/06 06:42:25;;;;;;;7.37;6.77;;;19.00;99.90;;;;;;4898949;29;20805;-68
2022/06/06 06:45:00;;;;;;;7.57;6.97;;;19.10;99.90;;;;;;4915797;29;20461;-68
2022/06/06 06:47:30;;;;;;;7.90;7.20;;;19.10;99.90;;;;;;4914535;29;20463;-67
2022/06/06 06:50:09;;;;;;;7.73;7.00;;;19.10;99.90;;;;;;4914035;29;20902;-68
2022/06/06 06:52:41;;;;;;;7.37;6.70;;;19.10;99.90;;;;;;4909635;29;21001;-67
2022/06/06 06:55:22;;;;;;;8.17;7.37;;;19.10;99.90;;;;;;4917067;29;20469;-73
2022/06/06 06:58:02;;;;;;;8.37;7.63;;;19.10;99.90;;;;;;4918363;29;20482;-67
2022/06/06 07:00:38;;;;;;;7.07;6.57;;;19.10;99.90;;;;;;4917561;29;20426;-67
2022/06/06 07:09:58;;;;;;;7.17;6.57;;;19.20;99.90;;;;;;4906157;29;20438;-68
2022/06/06 07:12:57;;;;;;;9.57;8.67;;;19.30;99.90;;;;;;4898457;29;20446;-68
2022/06/06 07:15:50;;;;;;;8.57;7.77;;;19.30;99.90;;;;;;4913509;29;20445;-68
2022/06/06 07:18:19;;;;;;;10.30;8.83;;;19.50;99.90;;;;;;4909720;29;20461;-68
2022/06/06 07:20:47;;;;;;;7.10;6.43;;;19.50;99.90;;;;;;4916982;29;20439;-68
2022/06/06 07:23:14;;;;;;;10.30;8.93;;;19.70;99.90;;;;;;4917018;29;20422;-68
2022/06/06 07:25:44;;;;;;;13.73;10.30;;;19.70;98.10;;;;;;4917831;29;20521;-68
2022/06/06 07:28:14;;;;;;;13.13;10.80;;;19.70;97.30;;;;;;4915709;29;20434;-69
2022/06/06 07:31:16;;;;;;;5.17;4.77;;;19.60;97.60;;;;;;4898970;29;20438;-68
2022/06/06 07:34:06;;;;;;;7.20;5.83;;;19.60;96.50;;;;;;4899547;29;20430;-68
2022/06/06 07:36:41;;;;;;;7.23;6.50;;;19.50;96.30;;;;;;4898624;29;20537;-68
2022/06/06 07:39:31;;;;;;;4.70;4.20;;;19.60;97.20;;;;;;4916105;29;20501;-77
2022/06/06 07:42:24;;;;;;;12.57;11.03;;;19.60;95.80;;;;;;4917144;29;20407;-69
2022/06/06 07:44:55;;;;;;;7.13;6.47;;;19.70;96.80;;;;;;4916103;29;20490;-70
2022/06/06 07:47:55;;;;;;;5.40;5.00;;;19.90;96.90;;;;;;4898501;29;20981;-70
2022/06/06 07:50:25;;;;;;;170.87;119.37;;;19.90;95.20;;;;;;4915672;29;20447;-71
2022/06/06 07:52:56;;;;;;;45.10;34.53;;;20.00;96.30;;;;;;4916524;29;20450;-71
2022/06/06 07:55:38;;;;;;;19.03;17.00;;;20.20;98.20;;;;;;4916250;29;20434;-71
2022/06/06 07:58:24;;;;;;;10.13;7.60;;;20.30;96.20;;;;;;4914818;29;20501;-70
2022/06/06 08:01:27;;;;;;;5.87;5.37;;;20.40;96.00;;;;;;4915541;29;20449;-71
2022/06/06 08:04:20;;;;;;;5.00;4.60;;;20.50;95.50;;;;;;4915423;29;20799;-72
2022/06/06 08:06:59;;;;;;;4.60;4.27;;;20.60;95.50;;;;;;4891871;29;20446;-72
2022/06/06 08:09:32;;;;;;;3.97;3.70;;;20.60;95.40;;;;;;4913804;29;20435;-72
2022/06/06 08:12:03;;;;;;;13.90;10.47;;;20.70;94.50;;;;;;4915549;29;20497;-71
2022/06/06 08:14:48;;;;;;;5.13;4.80;;;20.90;95.30;;;;;;4911625;29;20443;-69
2022/06/06 08:17:34;;;;;;;6.43;5.40;;;21.10;93.90;;;;;;4915080;29;20406;-69
2022/06/06 08:20:11;;;;;;;5.70;5.20;;;21.20;94.50;;;;;;4913514;29;20501;-69
2022/06/06 08:22:42;;;;;;;3.47;3.27;;;21.30;92.50;;;;;;4915756;29;20426;-69
2022/06/06 08:25:12;;;;;;;4.57;4.20;;;21.30;92.10;;;;;;4916122;29;20457;-73
2022/06/06 08:27:51;;;;;;;6.80;5.93;;;21.40;92.50;;;;;;4916707;29;20465;-68
2022/06/06 08:30:19;;;;;;;118.50;107.53;;;21.50;92.50;;;;;;4911492;29;20876;-68
2022/06/06 08:32:46;;;;;;;11.03;9.90;;;21.50;91.50;;;;;;4916558;29;20426;-68
2022/06/06 08:35:11;;;;;;;12.03;9.83;;;21.60;91.00;;;;;;4914322;29;20441;-77
2022/06/06 08:37:55;;;;;;;3.40;3.20;;;21.70;92.00;;;;;;4912177;29;20434;-68
2022/06/06 08:40:30;;;;;;;3.53;2.80;;;21.70;90.80;;;;;;4913337;29;20182;-68
2022/06/06 08:43:26;;;;;;;2.90;2.70;;;21.70;90.50;;;;;;4913637;29;20813;-68
2022/06/06 08:46:17;;;;;;;2.87;2.67;;;21.80;87.50;;;;;;4913162;29;20443;-69
2022/06/06 08:50:44;;;;;;;2.83;2.73;;;21.80;89.10;;;;;;4912892;29;20854;-68
2022/06/06 08:52:38;;;;;;;2.90;2.70;;;21.90;84.90;;;;;;4911073;29;20438;-70
2022/06/06 08:55:41;;;;;;;2.63;2.43;;;21.90;87.80;;;;;;4896299;29;20950;-70
2022/06/06 08:58:33;;;;;;;2.73;2.63;;;21.60;86.70;;;;;;4917039;29;20462;-70
2022/06/06 09:01:20;;;;;;;2.87;2.67;;;21.80;89.90;;;;;;4912779;29;20443;-69
2022/06/06 09:04:07;;;;;;;2.23;2.13;;;21.90;87.00;;;;;;4914362;29;20521;-68
2022/06/06 09:07:04;;;;;;;2.90;2.53;;;22.00;84.80;;;;;;4910224;29;20454;-70
2022/06/06 09:09:51;;;;;;;2.30;2.20;;;22.00;83.50;;;;;;4911543;29;20438;-68
2022/06/06 09:12:52;;;;;;;2.60;2.40;;;22.10;81.80;;;;;;4913706;29;20421;-68
2022/06/06 09:15:23;;;;;;;49.70;38.63;;;22.00;84.40;;;;;;4913707;29;20466;-68
2022/06/06 09:18:10;;;;;;;8.30;7.50;;;22.10;84.30;;;;;;4915880;29;20505;-68
2022/06/06 09:20:42;;;;;;;2.70;2.50;;;22.10;83.30;;;;;;4906424;29;20450;-69
2022/06/06 09:23:21;;;;;;;2.57;2.47;;;22.20;85.00;;;;;;4914129;29;20452;-68
2022/06/06 09:26:15;;;;;;;3.60;2.77;;;22.30;85.10;;;;;;4914075;29;20461;-72
2022/06/06 09:29:07;;;;;;;3.53;3.20;;;22.40;92.00;;;;;;4911427;29;20438;-69
2022/06/06 09:31:39;;;;;;;10.27;6.50;;;22.40;88.90;;;;;;4901456;29;20498;-69
2022/06/06 09:34:14;;;;;;;5.10;3.23;;;22.40;89.20;;;;;;4914729;29;20449;-69
2022/06/06 09:36:54;;;;;;;2.77;2.63;;;22.40;89.80;;;;;;4915968;29;20464;-69
2022/06/06 09:39:49;;;;;;;3.47;3.27;;;22.50;90.10;;;;;;4914973;29;20406;-69
2022/06/06 09:42:40;;;;;;;3.03;2.83;;;22.50;87.20;;;;;;4915586;29;20433;-74
2022/06/06 09:45:11;;;;;;;4.00;3.70;;;22.30;84.30;;;;;;4915795;29;20446;-69
2022/06/06 09:48:09;;;;;;;2.60;2.50;;;22.20;89.00;;;;;;4914636;29;20520;-69
2022/06/06 09:50:59;;;;;;;389.07;306.43;;;22.00;82.20;;;;;;4914660;29;20457;-69
2022/06/06 09:53:40;;;;;;;5.40;4.93;;;22.10;86.90;;;;;;4914685;29;20501;-69
2022/06/06 09:59:30;;;;;;;2.97;2.87;;;22.20;82.80;;;;;;4915759;29;20414;-69
2022/06/06 10:02:40;;;;;;;3.63;3.30;;;22.10;83.50;;;;;;4917598;29;20414;-69
2022/06/06 10:05:32;;;;;;;4.13;3.77;;;22.10;83.60;;;;;;4913847;29;20477;-69
2022/06/06 10:08:04;;;;;;;4.80;4.40;;;22.00;87.10;;;;;;4919269;29;20429;-68
2022/06/06 10:10:43;;;;;;;4.20;3.90;;;21.90;88.50;;;;;;4918553;29;20395;-69
2022/06/06 10:13:33;;;;;;;2.50;2.40;;;21.80;87.70;;;;;;4883708;29;20433;-68
2022/06/06 10:16:21;;;;;;;2.60;2.50;;;21.80;83.70;;;;;;4915129;29;20430;-69
2022/06/06 10:19:22;;;;;;;2.87;2.57;;;21.80;83.30;;;;;;4935024;29;20463;-68
2022/06/06 10:22:02;;;;;;;2.50;2.30;;;21.80;84.20;;;;;;4927487;29;20437;-69
2022/06/06 10:25:09;;;;;;;2.80;2.60;;;21.80;84.10;;;;;;4936344;29;20481;-70
2022/06/06 10:27:50;;;;;;;1.93;1.83;;;21.60;82.80;;;;;;4937187;29;20607;-70
2022/06/06 10:30:39;;;;;;;2.20;2.10;;;21.50;84.20;;;;;;4937587;29;20537;-76
2022/06/06 10:33:13;;;;;;;2.17;2.07;;;21.40;84.10;;;;;;4937850;29;20794;-69
2022/06/06 10:35:54;;;;;;;2.87;2.13;;;21.30;84.60;;;;;;4937048;29;20421;-68
2022/06/06 10:38:57;;;;;;;2.10;2.00;;;21.30;85.80;;;;;;4934966;29;20441;-70
2022/06/06 10:41:46;;;;;;;2.17;1.97;;;21.30;86.60;;;;;;4936801;29;20421;-70
2022/06/06 10:44:31;;;;;;;28.13;19.63;;;21.50;86.30;;;;;;4937551;29;20465;-70
2022/06/06 10:46:59;;;;;;;62.80;50.73;;;21.70;86.70;;;;;;4936332;29;20832;-68
2022/06/06 10:49:37;;;;;;;2.60;2.50;;;21.70;84.60;;;;;;4934951;29;20456;-68
2022/06/06 10:52:34;;;;;;;2.30;2.20;;;21.80;87.30;;;;;;4937149;29;20455;-69
2022/06/06 10:55:14;;;;;;;2.50;2.40;;;21.90;85.70;;;;;;4937818;29;20540;-70
2022/06/06 10:57:56;;;;;;;2.53;2.43;;;22.00;86.40;;;;;;4933981;29;20451;-69
2022/06/06 11:00:42;;;;;;;2.53;2.40;;;22.20;88.20;;;;;;4931987;29;20429;-69
2022/06/06 11:03:31;;;;;;;2.50;2.30;;;22.40;84.30;;;;;;4936701;29;20472;-68
2022/06/06 11:06:28;;;;;;;2.07;1.97;;;22.30;84.30;;;;;;4933641;29;20452;-68
2022/06/06 11:09:18;;;;;;;2.37;2.17;;;22.20;83.30;;;;;;4934349;29;20508;-68
2022/06/06 11:11:44;;;;;;;1.77;1.67;;;22.00;87.30;;;;;;4934693;29;20446;-68
2022/06/06 11:14:33;;;;;;;2.53;2.43;;;22.10;90.00;;;;;;4937329;29;20433;-68
2022/06/06 11:17:05;;;;;;;2.60;2.40;;;22.10;89.30;;;;;;4937142;29;20570;-69
2022/06/06 11:19:56;;;;;;;2.63;2.43;;;22.00;87.00;;;;;;4922771;29;20573;-69
2022/06/06 11:22:36;;;;;;;2.40;2.27;;;21.90;88.90;;;;;;4882532;29;20787;-74
2022/06/06 11:25:11;;;;;;;2.40;2.30;;;21.70;90.20;;;;;;4917659;29;20469;-68
2022/06/06 11:27:37;;;;;;;2.30;2.20;;;21.90;90.40;;;;;;4898598;29;20485;-68
2022/06/06 11:30:11;;;;;;;3.43;2.40;;;22.20;90.30;;;;;;4916408;29;20472;-68
2022/06/06 11:32:56;;;;;;;2.83;2.73;;;22.40;89.80;;;;;;4900114;29;20182;-68
2022/06/06 11:35:43;;;;;;;2.60;2.50;;;22.70;87.70;;;;;;4916685;29;20403;-73
2022/06/06 11:38:47;;;;;;;2.70;2.50;;;22.90;88.80;;;;;;4916654;29;20772;-67
2022/06/06 11:41:32;;;;;;;5.50;5.10;;;23.20;90.00;;;;;;4900567;29;21004;-68
2022/06/06 11:44:33;;;;;;;12.30;11.10;;;23.30;79.60;;;;;;4908983;29;20607;-69
2022/06/06 11:47:27;;;;;;;40.40;35.40;;;23.20;78.20;;;;;;4912431;29;20870;-68
2022/06/06 11:50:13;;;;;;;3.50;3.23;;;23.20;80.50;;;;;;4912331;29;20477;-67
2022/06/06 11:52:57;;;;;;;2.70;2.60;;;23.20;78.90;;;;;;4912599;29;20481;-69
2022/06/06 11:55:32;;;;;;;1.90;1.80;;;23.10;78.50;;;;;;4911006;29;20456;-68
2022/06/06 11:58:15;;;;;;;1.80;1.70;;;22.90;77.70;;;;;;4913529;29;20441;-67
2022/06/06 12:00:56;;;;;;;26.57;22.10;;;22.90;80.80;;;;;;4909558;29;20465;-67
2022/06/06 12:03:44;;;;;;;4.10;3.70;;;23.00;78.10;;;;;;4913737;29;20497;-74
2022/06/06 12:06:31;;;;;;;2.57;2.23;;;23.10;75.30;;;;;;4915539;29;20414;-68
2022/06/06 12:09:20;;;;;;;2.10;2.00;;;23.10;78.70;;;;;;4916159;29;20510;-67
2022/06/06 12:12:16;;;;;;;2.47;2.37;;;23.20;76.30;;;;;;4913596;29;20415;-69
2022/06/06 12:15:03;;;;;;;2.70;2.50;;;23.30;77.20;;;;;;4915549;29;20418;-68
2022/06/06 12:17:44;;;;;;;2.20;2.10;;;23.40;76.10;;;;;;4897123;29;20438;-70
2022/06/06 12:20:30;;;;;;;2.00;2.00;;;23.60;76.50;;;;;;4913352;29;20642;-69
2022/06/06 12:23:18;;;;;;;2.30;2.20;;;23.70;75.00;;;;;;4910625;29;20924;-69
2022/06/06 12:26:17;;;;;;;2.93;2.00;;;23.50;71.60;;;;;;4912701;29;20481;-69
2022/06/06 12:29:17;;;;;;;2.20;2.10;;;23.50;75.70;;;;;;4914081;29;20478;-69
2022/06/06 12:31:58;;;;;;;2.33;2.23;;;23.30;73.70;;;;;;4913696;29;20418;-68
2022/06/06 12:34:39;;;;;;;2.23;2.13;;;23.30;75.30;;;;;;4914174;29;20410;-68
2022/06/06 12:37:28;;;;;;;2.60;2.50;;;23.10;75.00;;;;;;4912332;29;20961;-69
2022/06/06 12:40:19;;;;;;;2.70;2.60;;;22.80;75.80;;;;;;4910250;29;20931;-69
2022/06/06 12:42:50;;;;;;;2.27;2.27;;;22.60;78.20;;;;;;4909705;29;20462;-68
2022/06/06 12:45:44;;;;;;;2.60;2.40;;;22.60;76.70;;;;;;4912737;29;20471;-69
2022/06/06 12:48:44;;;;;;;2.30;2.10;;;22.70;78.30;;;;;;4912175;29;20522;-72
2022/06/06 12:51:34;;;;;;;1.90;1.90;;;22.90;77.10;;;;;;4914980;29;20954;-68
2022/06/06 12:54:25;;;;;;;2.10;1.97;;;23.00;75.10;;;;;;4911321;29;20430;-69
2022/06/06 12:57:00;;;;;;;2.10;2.00;;;23.20;74.30;;;;;;4896944;29;20903;-70
2022/06/06 12:59:26;;;;;;;2.03;1.93;;;23.30;76.10;;;;;;4914371;29;20441;-71
2022/06/06 13:02:08;;;;;;;2.20;2.10;;;23.40;78.50;;;;;;4914193;29;20982;-71
2022/06/06 13:04:41;;;;;;;2.50;2.40;;;23.60;78.60;;;;;;4914879;29;20194;-69
2022/06/06 13:07:12;;;;;;;2.43;2.27;;;23.60;75.70;;;;;;4913402;29;20971;-70
2022/06/06 13:10:23;;;;;;;2.37;2.27;;;23.80;76.70;;;;;;4907376;29;20482;-71
2022/06/06 13:13:19;;;;;;;2.10;1.93;;;23.90;77.10;;;;;;4882138;29;20446;-69
2022/06/06 13:15:55;;;;;;;2.20;2.10;;;24.00;76.40;;;;;;4895758;29;20439;-69
2022/06/06 13:19:01;;;;;;;79.60;68.77;;;23.90;74.40;;;;;;4894415;29;20501;-74
2022/06/06 13:21:39;;;;;;;6.43;6.00;;;24.00;73.20;;;;;;4908812;29;20609;-68
2022/06/06 13:24:26;;;;;;;2.63;2.53;;;23.80;74.80;;;;;;4909816;29;20557;-69
2022/06/06 13:27:18;;;;;;;3.00;2.80;;;23.70;70.80;;;;;;4898165;29;20991;-69
2022/06/06 13:29:46;;;;;;;2.40;2.30;;;23.70;73.60;;;;;;4911419;29;20501;-68
2022/06/06 13:32:36;;;;;;;2.60;2.50;;;23.60;71.30;;;;;;4911150;29;20530;-68
2022/06/06 13:35:19;;;;;;;2.83;2.63;;;23.70;73.90;;;;;;4911163;29;20445;-71
2022/06/06 13:38:07;;;;;;;2.33;2.23;;;23.70;73.20;;;;;;4897102;29;20981;-69
2022/06/06 13:40:44;;;;;;;2.57;2.47;;;23.70;72.00;;;;;;4914036;29;20471;-68
2022/06/06 13:43:22;;;;;;;2.57;2.40;;;23.50;67.90;;;;;;4917506;29;20476;-71
2022/06/06 13:46:06;;;;;;;1.90;1.90;;;23.30;68.80;;;;;;4914012;29;20536;-68
2022/06/06 13:48:38;;;;;;;2.00;2.00;;;23.20;68.50;;;;;;4916657;29;20458;-67
2022/06/06 13:51:31;;;;;;;2.70;2.47;;;23.10;71.50;;;;;;4917302;29;20545;-68
2022/06/06 13:54:10;;;;;;;3.30;1.97;;;23.10;70.00;;;;;;4896193;29;20430;-68
2022/06/06 13:56:42;;;;;;;2.70;2.50;;;23.10;69.30;;;;;;4913923;29;20434;-68
2022/06/06 13:59:29;;;;;;;3.20;3.00;;;23.20;71.40;;;;;;4915286;29;20446;-68
2022/06/06 14:02:22;;;;;;;2.83;2.63;;;23.20;70.60;;;;;;4918433;29;20429;-69